Terminal Aerodrome Forecast
Issued by NWS

Home | Current Version | Previous Version | Text Only | Print | Product List | Glossary On
Versions: 1 2 3 4 5 6 7 8 9 10 11 12 13 14 15 16 17 18 19 20 21 22 23 24 25
345
FTUS46 KMTR 240520
TAFSFO
TAF
KSFO 240520Z 2406/2512 30015KT P6SM FEW012
     FM241100 29008KT P6SM SCT010
      TEMPO 2412/2416 BKN010
     FM241700 31006KT P6SM FEW015
     FM241900 30012KT P6SM SKC
     FM242100 29016G22KT P6SM SKC
     FM250400 29012KT P6SM SKC=

USA.gov is the U.S. government's official web portal to all federal, state and local government web resources and services.